Terminal Aerodrome Forecast
Issued by NWS Cleveland, OH

Home | Current Version | Previous Version | Graphics & Text | Print | Product List | Glossary On
Versions: 1 2 3 4 5 6 7 8 9 10 11 12 13 14 15 16
441
FTUS41 KCLE 302338
TAFYNG
TAF
KYNG 302338Z 0100/0124 22010KT 2SM -SHRA OVC008
     FM010100 27011KT 5SM -SHRA OVC012
      TEMPO 0101/0105 6SM -SHRA SCT012 OVC025
     FM010500 27012G18KT P6SM BKN015 OVC020=

USA.gov is the U.S. government's official web portal to all federal, state and local government web resources and services.